logo
Search for airport 
image banner adimage banner adimage banner ad
image banner ad

OPPS - Peshawar / Bacha Khan International

Located in Peshawar Cantt, Pakistan

ICAO - OPPS, IATA - PEW

Data provided by Airmate  

General information

Coordinates: N33°59'38" E71°30'52"
Elevation is 1211 feet MSL.
 
Rated:
View ratings:
[VIEW]
View others Airports in North-West Frontier

Operational data

Special qualification required
Current time UTC:
Current local time:
Weather
METAR: OPPS 140000Z 23008KT 5000 SCT010 FEW025TCU BKN040 OVC080 16/16 Q1016
TAF: TAF OPPS 132300Z 1400/1506 31006KT 4000 -TSRA FEW040CB SCT050 OVC100 BECMG 1423/1502 23008KT 3000 TSSHRA FEW030CB SCT040 OVC100
View NOTAMs / SUP AIP / TFR affecting this airport [VIEW]
Communications frequencies: [VIEW]

Runways:

RWY identifierQFULength (ft)Width (ft)SurfaceLDA (ft)
17176°8999151ASP
35356°8999151ASP

Airport contact information

Address: Peshawar Cantt Pakistan

Satellite view of OPPS